Startpagina
METAR-TAF:

METAR-TAF

Vliegvelden :

Aéroport de Sion

Sion, Zwitserland

breedte: 46-13N, lengte: 007-20E, hoogte: 482 m

Actueel weer

Dit bericht is 30 minuten geleden gemaakt, om 20:20 UTC
Wind 5 kt uit het westen, variërend tussen het westzuidwesten en het noordwesten
Temperatuur 15°C
Vochtigheid 41%
Druk 1027 hPa
Zicht 10 km of meer
Verspreide wolken op 8500 ft

METAR: LSGS 232020Z AUTO 28005KT 250V320 9999 SCT085 15/02 Q1027

Tijdstip: 21:50 (20:50 UTC)

Verwachting

Dit bericht is 6 uur en het 25 minuten geleden gemaakt, om 14:25 UTC
Verwachting geldig van 23 om 15 UTC tot 23 om 24 UTC
Wind 3 kt uit variabele richting
Zicht 10 km of meer
Verspreide wolken op 8000 ft

TAF: LSGS 231425Z 2315/2324 VRB03KT 9999 SCT080

Waarnemingen en weersverwachtingen van meer dan 4000 vliegvelden (METAR en TAF).

De beschikbare stations zijn de gele en rode punten op de kaart.

Ga met uw muis naar het station om de naam te zien.

Klik dan om waarnemingen en weersverwachtingen te zien.

kaart wijzigen: klik op de groene knoppen met een zwart kruis om in te zoomen, op de groene knop met een streepje om uit te zoomen of op de groene pijlen voor aangrenzende kaarten.


METAR-TAF: